createdAt,value
2023-03-02T00:04:35.897Z,0.53
2023-03-02T00:09:38.623Z,0.46
2023-03-02T00:14:40.268Z,0.52
2023-03-02T00:19:42.009Z,0.47
2023-03-02T00:24:43.684Z,0.43
2023-03-02T00:29:45.517Z,0.40
2023-03-02T00:34:47.075Z,0.31
2023-03-02T00:39:51.859Z,0.36
2023-03-02T00:44:53.580Z,0.30
2023-03-02T00:49:56.193Z,0.30
2023-03-02T00:54:57.789Z,0.30
2023-03-02T00:59:59.848Z,0.32
2023-03-02T01:05:12.002Z,0.51
2023-03-02T01:10:14.444Z,0.46
2023-03-02T01:15:16.720Z,0.51
2023-03-02T01:20:18.668Z,0.55
2023-03-02T01:25:20.339Z,0.57
2023-03-02T01:30:24.195Z,0.51
2023-03-02T01:35:26.025Z,0.55
2023-03-02T01:40:27.624Z,0.47
2023-03-02T01:45:54.555Z,0.28
2023-03-02T01:51:06.543Z,0.43
2023-03-02T01:56:09.493Z,0.23
2023-03-02T02:01:20.118Z,0.21
2023-03-02T02:06:26.315Z,0.11
2023-03-02T02:11:28.230Z,0.18
2023-03-02T02:16:34.138Z,0.07
2023-03-02T02:21:36.597Z,0.14
2023-03-02T02:26:51.557Z,0.12
2023-03-02T02:32:02.355Z,0.10
2023-03-02T02:37:09.375Z,0.02
2023-03-02T02:42:24.412Z,-0.02
2023-03-02T02:47:26.343Z,-0.09
2023-03-02T02:52:29.015Z,-0.06
2023-03-02T02:57:31.288Z,-0.08
2023-03-02T03:02:37.514Z,-0.18
2023-03-02T03:07:39.349Z,-0.27
2023-03-02T03:12:42.677Z,-0.36
2023-03-02T03:18:02.625Z,-0.48
2023-03-02T03:23:04.379Z,-0.41
2023-03-02T03:28:06.734Z,-0.46
2023-03-02T03:33:11.928Z,-0.55
2023-03-02T03:38:14.705Z,-0.62
2023-03-02T03:43:17.465Z,-0.52
2023-03-02T03:48:25.200Z,-0.53
2023-03-02T03:53:28.492Z,-0.57
2023-03-02T03:58:31.377Z,-0.61
2023-03-02T04:03:33.740Z,-0.57
2023-03-02T04:08:35.912Z,-0.70
2023-03-02T04:13:37.700Z,-0.57
2023-03-02T04:18:39.410Z,-0.61
2023-03-02T04:23:41.366Z,-0.76
2023-03-02T04:28:43.358Z,-0.64
2023-03-02T04:33:45.399Z,-0.72
2023-03-02T04:38:47.936Z,-0.63
2023-03-02T04:43:49.816Z,-0.72
2023-03-02T04:48:51.772Z,-0.76
2023-03-02T04:54:00.486Z,-0.74
2023-03-02T04:59:02.704Z,-0.76
2023-03-02T05:04:04.697Z,-0.87
2023-03-02T05:09:06.553Z,-0.91
2023-03-02T05:14:11.159Z,-0.88
2023-03-02T05:19:13.438Z,-0.98
2023-03-02T05:24:15.230Z,-1.00
2023-03-02T05:29:16.940Z,-1.06
2023-03-02T05:34:18.969Z,-1.18
2023-03-02T05:39:20.523Z,-1.24
2023-03-02T05:44:22.105Z,-1.16
2023-03-02T05:49:23.733Z,-1.34
2023-03-02T05:54:25.437Z,-1.21
2023-03-02T05:59:26.957Z,-1.21
2023-03-02T06:04:28.616Z,-1.20
2023-03-02T06:09:30.186Z,-1.33
2023-03-02T06:14:31.878Z,-1.28
2023-03-02T06:19:33.525Z,-1.24
2023-03-02T06:24:35.271Z,-1.26
2023-03-02T06:29:36.869Z,-1.18
2023-03-02T06:34:38.533Z,-1.24
2023-03-02T06:39:40.136Z,-1.13
2023-03-02T06:44:41.671Z,-1.27
2023-03-02T06:49:43.243Z,-1.12
2023-03-02T06:54:44.822Z,-1.02
2023-03-02T06:59:46.440Z,-0.90
2023-03-02T07:04:48.168Z,-0.90
2023-03-02T07:09:49.828Z,-0.91
2023-03-02T07:14:51.372Z,-0.72
2023-03-02T07:19:52.945Z,-0.67
2023-03-02T07:24:54.540Z,-0.66
2023-03-02T07:29:56.137Z,-0.64
2023-03-02T07:34:57.898Z,-0.81
2023-03-02T07:40:00.799Z,-0.64
2023-03-02T07:45:04.438Z,-0.45
2023-03-02T07:50:06.708Z,-0.32
2023-03-02T07:55:09.114Z,-0.35
2023-03-02T08:00:11.305Z,-0.35
2023-03-02T08:05:16.908Z,-0.09
2023-03-02T08:10:18.638Z,0.24
2023-03-02T08:15:20.240Z,0.22
2023-03-02T08:20:21.851Z,0.37
2023-03-02T08:25:23.811Z,0.49
2023-03-02T08:30:25.850Z,0.51
2023-03-02T08:35:27.627Z,0.87
2023-03-02T08:40:29.203Z,1.12
2023-03-02T08:45:30.754Z,1.86
2023-03-02T08:50:35.262Z,2.01
2023-03-02T08:55:37.457Z,1.40
2023-03-02T09:00:39.061Z,1.83
2023-03-02T09:05:40.796Z,2.37
2023-03-02T09:10:42.611Z,2.86
2023-03-02T09:15:45.045Z,3.34
2023-03-02T09:20:51.691Z,3.90
2023-03-02T09:25:53.724Z,3.76
2023-03-02T09:30:58.685Z,3.37
2023-03-02T09:36:01.549Z,4.03
2023-03-02T09:41:21.521Z,4.58
2023-03-02T09:46:43.890Z,4.39
2023-03-02T09:52:18.761Z,4.11
2023-03-02T09:57:39.998Z,5.39
2023-03-02T10:03:02.488Z,5.63
2023-03-02T10:08:15.210Z,5.67
2023-03-02T10:13:22.230Z,5.70
2023-03-02T10:18:30.115Z,6.10
2023-03-02T10:23:47.071Z,6.09
2023-03-02T10:28:56.924Z,7.01
2023-03-02T10:33:59.672Z,6.40
2023-03-02T10:39:03.175Z,6.81
2023-03-02T10:44:14.429Z,7.50
2023-03-02T10:49:42.561Z,7.44
2023-03-02T10:54:44.493Z,7.77
2023-03-02T10:59:47.861Z,7.35
2023-03-02T11:05:28.990Z,7.92
2023-03-02T11:10:32.674Z,8.42
2023-03-02T11:15:40.358Z,7.87
2023-03-02T11:20:44.725Z,9.09
2023-03-02T11:26:00.711Z,7.72
2023-03-02T11:31:06.755Z,8.41
2023-03-02T11:36:17.325Z,8.44
2023-03-02T11:41:28.412Z,8.69
2023-03-02T11:46:32.220Z,8.88
2023-03-02T11:51:37.853Z,8.97
2023-03-02T11:56:41.945Z,8.53
2023-03-02T12:01:48.328Z,8.88
2023-03-02T12:06:50.100Z,8.65
2023-03-02T12:12:00.833Z,9.47
2023-03-02T12:17:25.725Z,8.88
2023-03-02T12:22:31.863Z,8.66
2023-03-02T12:27:39.581Z,10.08
2023-03-02T12:32:43.500Z,9.45
2023-03-02T12:37:49.496Z,9.19
2023-03-02T12:49:08.747Z,9.48
2023-03-02T12:54:19.210Z,9.99
2023-03-02T12:59:26.906Z,9.51
2023-03-02T13:04:31.037Z,10.32
2023-03-02T13:09:32.646Z,9.09
2023-03-02T13:14:34.322Z,10.25
2023-03-02T13:19:37.157Z,10.62
2023-03-02T13:24:46.291Z,10.73
2023-03-02T13:29:48.899Z,9.83
2023-03-02T13:34:56.631Z,9.91
2023-03-02T13:40:00.637Z,11.32
2023-03-02T13:45:24.342Z,11.54
2023-03-02T13:50:31.595Z,10.63
2023-03-02T13:55:34.804Z,10.32
2023-03-02T14:00:36.477Z,10.19
2023-03-02T14:05:38.126Z,10.25
2023-03-02T14:10:41.228Z,10.56
2023-03-02T14:15:47.699Z,10.29
2023-03-02T14:20:49.442Z,10.72
2023-03-02T14:25:52.914Z,10.04
2023-03-02T14:30:59.815Z,10.58
2023-03-02T14:36:01.635Z,9.82
2023-03-02T14:41:03.887Z,10.19
2023-03-02T14:46:05.708Z,9.47
2023-03-02T14:51:22.032Z,9.98
2023-03-02T14:56:23.772Z,9.66
2023-03-02T15:01:25.872Z,9.52
2023-03-02T15:06:31.814Z,10.01
2023-03-02T15:11:34.040Z,9.43
2023-03-02T15:16:35.866Z,9.75
2023-03-02T15:21:41.503Z,9.48
2023-03-02T15:26:46.137Z,8.99
2023-03-02T15:31:47.813Z,9.16
2023-03-02T15:36:49.471Z,8.76
2023-03-02T15:42:42.427Z,8.78
2023-03-02T15:47:44.023Z,8.63
2023-03-02T15:52:45.539Z,8.42
2023-03-02T15:57:47.045Z,8.20
2023-03-02T16:02:49.915Z,8.18
2023-03-02T16:07:51.544Z,7.85
2023-03-02T16:12:53.224Z,7.87
2023-03-02T16:17:54.812Z,7.81
2023-03-02T16:22:56.428Z,7.41
2023-03-02T16:27:57.968Z,7.40
2023-03-02T16:33:01.939Z,7.24
2023-03-02T16:38:04.339Z,6.92
2023-03-02T16:43:08.947Z,6.83
2023-03-02T16:48:10.783Z,6.62
2023-03-02T16:53:15.399Z,6.39
2023-03-02T16:58:17.051Z,6.15
2023-03-02T17:03:19.045Z,6.35
2023-03-02T17:08:20.571Z,6.05
2023-03-02T17:13:22.194Z,5.97
2023-03-02T17:18:23.852Z,5.77
2023-03-02T17:23:27.189Z,5.47
2023-03-02T17:28:28.764Z,5.25
2023-03-02T17:33:30.348Z,4.89
2023-03-02T17:38:31.893Z,4.91
2023-03-02T17:43:35.496Z,4.82
2023-03-02T17:48:37.240Z,4.63
2023-03-02T17:53:39.046Z,4.42
2023-03-02T17:58:45.002Z,4.20
2023-03-02T18:03:47.256Z,4.26
2023-03-02T18:08:50.765Z,3.97
2023-03-02T18:13:55.049Z,3.85
2023-03-02T18:18:57.486Z,3.89
2023-03-02T18:23:59.112Z,3.71
2023-03-02T18:29:00.770Z,3.47
2023-03-02T18:34:02.816Z,3.37
2023-03-02T18:39:04.535Z,3.20
2023-03-02T18:44:06.116Z,3.16
2023-03-02T18:49:07.704Z,2.81
2023-03-02T18:54:09.262Z,2.79
2023-03-02T18:59:11.548Z,2.77
2023-03-02T19:04:14.472Z,2.63
2023-03-02T19:09:16.201Z,2.67
2023-03-02T19:14:18.347Z,2.52
2023-03-02T19:19:19.891Z,2.46
2023-03-02T19:24:21.389Z,2.41
2023-03-02T19:29:23.327Z,2.24
2023-03-02T19:34:24.866Z,2.26
2023-03-02T19:39:26.500Z,2.26
2023-03-02T19:44:28.057Z,2.11
2023-03-02T19:49:29.635Z,2.01
2023-03-02T19:54:32.232Z,1.95
2023-03-02T19:59:33.889Z,1.93
2023-03-02T20:04:35.525Z,1.98
2023-03-02T20:09:37.108Z,1.88
2023-03-02T20:14:40.644Z,1.89
2023-03-02T20:19:43.998Z,1.79
2023-03-02T20:24:45.745Z,1.87
2023-03-02T20:29:48.216Z,1.76
2023-03-02T20:34:49.772Z,1.69
2023-03-02T20:39:52.013Z,1.67
2023-03-02T20:44:56.380Z,1.58
2023-03-02T20:49:58.292Z,1.50
2023-03-02T20:54:59.867Z,1.43
2023-03-02T21:00:01.680Z,1.48
2023-03-02T21:05:04.566Z,1.31
2023-03-02T21:10:09.580Z,1.33
2023-03-02T21:15:12.463Z,1.42
2023-03-02T21:20:15.658Z,1.20
2023-03-02T21:25:19.636Z,1.16
2023-03-02T21:30:27.985Z,1.18
2023-03-02T21:35:30.385Z,1.32
2023-03-02T21:40:36.107Z,1.32
2023-03-02T21:45:38.549Z,1.43
2023-03-02T21:50:40.317Z,1.47
2023-03-02T21:55:42.382Z,1.40
2023-03-02T22:00:45.474Z,1.61
2023-03-02T22:05:47.158Z,1.48
2023-03-02T22:10:51.031Z,1.31
2023-03-02T22:16:02.902Z,1.32
2023-03-02T22:21:23.736Z,1.13
2023-03-02T22:26:25.673Z,1.08
2023-03-02T22:31:27.289Z,0.97
2023-03-02T22:36:29.019Z,0.80
2023-03-02T22:41:30.526Z,0.81
2023-03-02T22:46:32.097Z,1.16
2023-03-02T22:51:34.214Z,1.20
2023-03-02T22:56:38.892Z,0.81
2023-03-02T23:01:42.927Z,0.88
2023-03-02T23:06:47.845Z,1.03
2023-03-02T23:11:50.474Z,1.10
2023-03-02T23:16:57.235Z,0.93
2023-03-02T23:21:59.155Z,0.81
2023-03-02T23:27:00.839Z,0.72
2023-03-02T23:32:02.561Z,0.95
2023-03-02T23:37:04.239Z,0.79
2023-03-02T23:42:05.979Z,0.95
2023-03-02T23:47:07.497Z,0.91
2023-03-02T23:52:09.718Z,1.12
2023-03-02T23:57:11.354Z,0.90
